首页
METAR-TAF:

METAR-TAF

机场 :

Mount Clemens, 密歇根州, 美国

纬度: 42-37N, 经度: 082-50W, 海拔: 177米

当前天气观测

该预报发布于58分钟前的09:56 UTC
静风
温度 18°C
湿度 100%
气压 1011 hPa
能見度: 16.1公里
散云层高于18000英尺

METAR: KMTC 010956Z AUTO 00000KT 10SM SCT180 18/18 A2984 RMK AO2 SLP107 T01770177 $

时间: 06:54 (10:54 UTC)

预报

该预报发布于1小时和54分钟前的09:00 UTC
预报有效从01日的 09点(UTC)到 02日的 15点(UTC)
风速6节,风向西转西北
能见度10公里或以上
散云层高于5000英尺
多云层高于12000英尺
成为
从 01日的 12点(UTC)到 01日的 13点(UTC)
风速12节,风向西北
能見度: 8000
多云层高于3500英尺
小阵雨
成为
从 01日的 14点(UTC)到 01日的 16点(UTC)
风速12节,风向西北,有时为18节阵风
能见度10公里或以上
多云层高于14000英尺
成为
从 02日的 00点(UTC)到 02日的 01点(UTC)
风速9节,风向
能見度: 0111
散云层高于6000英尺

TAF: KMTC 010900Z 0109/0215 30006KT 9999 SCT050 BKN120 QNH2984INS BECMG 0112/0113 31012KT 8000 -SHRA BKN035 QNH2988INS BECMG 0114/0116 32012G18KT 9999 NSW BKN140 QNH2994INS BECMG 0200/0201 35009KT 9999 SCT060 QNH2999INS TX25/0120Z TN17/0111Z LAST NO AMDS AFT 0109 NEXT 0111

超过4000个机场的气象观测和天气预报(METAR&TAF报告)。

可查询的气象台以黄色和红色小点在地图上表示。

将鼠标移到小点上方,可查看气象台名称。

然后点击查看天气观测和预报。

如需切换地图:点击带黑十字的绿色按钮放大地图;点击带横线的绿色按钮缩小地图;或者点击绿色箭头查看邻近地区的地图。


METAR-TAF: